createdAt,value
2022-12-24T00:03:24.091Z,4.77
2022-12-24T00:08:26.208Z,4.57
2022-12-24T00:13:28.207Z,3.83
2022-12-24T00:18:30.295Z,4.80
2022-12-24T00:23:32.062Z,5.07
2022-12-24T00:28:33.978Z,5.93
2022-12-24T00:33:35.816Z,4.40
2022-12-24T00:38:38.871Z,5.20
2022-12-24T00:43:40.690Z,5.37
2022-12-24T00:48:42.601Z,4.30
2022-12-24T00:53:44.970Z,3.67
2022-12-24T00:58:47.044Z,4.00
2022-12-24T01:03:49.338Z,3.97
2022-12-24T01:08:51.504Z,4.33
2022-12-24T01:13:53.450Z,4.00
2022-12-24T01:18:55.274Z,4.23
2022-12-24T01:23:57.271Z,4.07
2022-12-24T01:28:59.608Z,4.17
2022-12-24T01:34:01.408Z,3.77
2022-12-24T01:39:04.106Z,3.37
2022-12-24T01:44:35.306Z,3.53
2022-12-24T01:49:44.750Z,2.97
2022-12-24T01:54:55.184Z,2.43
2022-12-24T02:00:00.417Z,3.03
2022-12-24T02:05:07.847Z,3.10
2022-12-24T02:10:12.769Z,2.73
2022-12-24T02:15:18.078Z,3.50
2022-12-24T02:20:25.752Z,5.60
2022-12-24T02:25:30.557Z,4.87
2022-12-24T02:30:43.619Z,4.47
2022-12-24T02:35:51.262Z,4.27
2022-12-24T02:41:07.437Z,4.13
2022-12-24T02:46:15.210Z,4.47
2022-12-24T02:51:21.914Z,4.50
2022-12-24T02:56:39.199Z,5.20
2022-12-24T03:02:13.728Z,3.80
2022-12-24T03:07:21.918Z,4.20
2022-12-24T03:12:32.949Z,4.37
2022-12-24T03:17:38.024Z,4.20
2022-12-24T03:22:39.954Z,4.30
2022-12-24T03:27:42.604Z,5.10
2022-12-24T03:32:45.037Z,4.00
2022-12-24T03:37:46.871Z,3.83
2022-12-24T03:42:48.820Z,5.17
2022-12-24T03:47:50.733Z,4.90
2022-12-24T03:52:52.639Z,5.03
2022-12-24T03:57:54.422Z,4.73
2022-12-24T04:02:56.386Z,4.17
2022-12-24T04:07:58.229Z,4.47
2022-12-24T04:13:00.139Z,4.83
2022-12-24T04:18:01.936Z,3.97
2022-12-24T04:23:03.859Z,4.47
2022-12-24T04:28:05.615Z,4.47
2022-12-24T04:33:08.120Z,4.10
2022-12-24T04:38:10.415Z,4.47
2022-12-24T04:43:12.317Z,4.40
2022-12-24T04:48:14.304Z,4.90
2022-12-24T04:53:16.292Z,4.43
2022-12-24T04:58:18.033Z,4.67
2022-12-24T05:03:20.084Z,4.23
2022-12-24T05:08:21.879Z,4.37
2022-12-24T05:13:26.911Z,3.73
2022-12-24T05:18:33.870Z,4.67
2022-12-24T05:23:55.654Z,4.17
2022-12-24T05:28:59.716Z,3.90
2022-12-24T05:34:03.176Z,4.77
2022-12-24T05:39:11.471Z,4.13
2022-12-24T05:44:16.292Z,5.40
2022-12-24T05:49:18.414Z,3.53
2022-12-24T05:54:20.177Z,4.63
2022-12-24T05:59:22.111Z,4.60
2022-12-24T06:04:28.576Z,4.73
2022-12-24T06:09:31.122Z,3.47
2022-12-24T06:14:33.207Z,4.77
2022-12-24T06:19:34.958Z,4.63
2022-12-24T06:24:37.118Z,5.00
2022-12-24T06:29:39.084Z,5.30
2022-12-24T06:34:40.997Z,4.90
2022-12-24T06:39:42.934Z,4.40
2022-12-24T06:44:44.719Z,4.83
2022-12-24T06:49:46.679Z,4.50
2022-12-24T06:54:48.673Z,4.47
2022-12-24T06:59:50.869Z,3.87
2022-12-24T07:04:52.807Z,5.50
2022-12-24T07:09:55.974Z,4.83
2022-12-24T07:14:58.570Z,5.20
2022-12-24T07:20:00.587Z,4.37
2022-12-24T07:25:02.472Z,4.73
2022-12-24T07:30:05.235Z,4.30
2022-12-24T07:35:07.498Z,5.77
2022-12-24T07:40:10.003Z,3.73
2022-12-24T07:45:12.063Z,4.57
2022-12-24T07:50:13.827Z,5.23
2022-12-24T07:55:15.677Z,5.30
2022-12-24T08:00:17.860Z,5.80
2022-12-24T08:05:19.680Z,5.77
2022-12-24T08:10:21.617Z,5.50
2022-12-24T08:15:23.403Z,5.03
2022-12-24T08:20:25.414Z,5.87
2022-12-24T08:25:27.321Z,5.13
2022-12-24T08:30:29.267Z,5.53
2022-12-24T08:35:31.285Z,5.33
2022-12-24T08:40:33.205Z,5.27
2022-12-24T08:45:40.696Z,5.50
2022-12-24T08:50:43.013Z,5.37
2022-12-24T08:55:46.684Z,5.13
2022-12-24T09:00:50.882Z,6.53
2022-12-24T09:05:55.991Z,6.70
2022-12-24T09:11:18.921Z,6.53
2022-12-24T09:16:21.168Z,5.10
2022-12-24T09:21:23.194Z,7.00
2022-12-24T09:26:26.745Z,5.97
2022-12-24T09:31:29.241Z,5.73
2022-12-24T09:36:31.169Z,7.60
2022-12-24T09:41:46.486Z,5.73
2022-12-24T09:46:51.338Z,6.03
2022-12-24T09:52:02.051Z,6.20
2022-12-24T09:57:28.602Z,6.93
2022-12-24T10:02:32.296Z,5.63
2022-12-24T10:07:53.148Z,6.30
2022-12-24T10:13:22.013Z,5.70
2022-12-24T10:18:49.810Z,5.97
2022-12-24T10:24:31.625Z,5.77
2022-12-24T10:29:40.623Z,5.27
2022-12-24T10:34:51.676Z,5.13
2022-12-24T10:39:53.690Z,5.30
2022-12-24T10:45:00.474Z,4.87
2022-12-24T10:50:17.024Z,4.47
2022-12-24T10:55:18.948Z,4.73
2022-12-24T11:00:26.979Z,4.20
2022-12-24T11:05:34.716Z,4.90
2022-12-24T11:10:41.337Z,5.93
2022-12-24T11:15:43.475Z,4.87
2022-12-24T11:20:52.343Z,4.53
2022-12-24T11:25:57.068Z,5.67
2022-12-24T11:31:00.734Z,5.40
2022-12-24T11:36:06.552Z,5.07
2022-12-24T11:41:12.554Z,5.83
2022-12-24T11:46:26.634Z,5.40
2022-12-24T11:51:28.753Z,5.10
2022-12-24T11:56:33.434Z,5.40
2022-12-24T12:01:43.116Z,5.33
2022-12-24T12:06:47.544Z,5.37
2022-12-24T12:11:56.733Z,5.67
2022-12-24T12:17:14.294Z,5.17
2022-12-24T12:22:28.687Z,4.75
2022-12-24T12:27:39.868Z,5.75
2022-12-24T12:33:05.253Z,6.00
2022-12-24T12:38:20.839Z,4.77
2022-12-24T12:43:57.239Z,5.03
2022-12-24T12:49:10.399Z,4.63
2022-12-24T12:54:34.172Z,5.45
2022-12-24T12:59:44.878Z,5.27
2022-12-24T13:05:16.677Z,4.88
2022-12-24T13:10:46.723Z,4.72
2022-12-24T13:15:54.565Z,5.23
2022-12-24T13:20:56.722Z,4.97
2022-12-24T13:25:59.228Z,5.53
2022-12-24T13:31:01.107Z,5.80
2022-12-24T13:36:04.207Z,4.73
2022-12-24T13:41:39.463Z,4.73
2022-12-24T13:47:04.910Z,6.00
2022-12-24T13:52:15.967Z,5.93
2022-12-24T13:57:36.560Z,5.80
2022-12-24T14:02:47.794Z,6.47
2022-12-24T14:07:50.809Z,7.07
2022-12-24T14:12:53.393Z,7.13
2022-12-24T14:17:55.478Z,5.73
2022-12-24T14:22:57.910Z,6.57
2022-12-24T14:28:17.317Z,6.37
2022-12-24T14:33:33.215Z,4.97
2022-12-24T14:38:35.233Z,5.87
2022-12-24T14:43:40.248Z,6.10
2022-12-24T14:49:00.832Z,5.07
2022-12-24T14:54:33.374Z,6.13
2022-12-24T14:59:42.962Z,4.50
2022-12-24T15:04:44.759Z,5.17
2022-12-24T15:09:46.796Z,8.60
2022-12-24T15:14:48.866Z,7.53
2022-12-24T15:19:52.673Z,7.10
2022-12-24T15:24:54.809Z,7.67
2022-12-24T15:29:57.710Z,8.37
2022-12-24T15:35:00.299Z,5.43
2022-12-24T15:40:18.662Z,5.97
2022-12-24T15:45:28.191Z,5.33
2022-12-24T15:50:55.770Z,6.13
2022-12-24T15:56:28.316Z,7.53
2022-12-24T16:01:30.424Z,5.37
2022-12-24T16:06:55.753Z,5.43
2022-12-24T16:12:02.885Z,6.43
2022-12-24T16:17:18.085Z,6.23
2022-12-24T16:22:31.420Z,6.00
2022-12-24T16:27:33.355Z,6.20
2022-12-24T16:32:37.963Z,6.97
2022-12-24T16:37:40.425Z,6.60
2022-12-24T16:43:00.919Z,6.83
2022-12-24T16:48:03.045Z,5.93
2022-12-24T16:53:04.788Z,5.60
2022-12-24T16:58:06.551Z,5.37
2022-12-24T17:03:09.127Z,5.93
2022-12-24T17:08:11.719Z,6.27
2022-12-24T17:13:13.613Z,5.90
2022-12-24T17:18:15.442Z,8.53
2022-12-24T17:23:17.218Z,7.17
2022-12-24T17:28:19.152Z,7.63
2022-12-24T17:33:20.911Z,7.50
2022-12-24T17:38:22.700Z,6.57
2022-12-24T17:43:24.493Z,6.33
2022-12-24T17:48:26.342Z,8.57
2022-12-24T17:53:28.303Z,9.37
2022-12-24T17:58:30.887Z,9.27
2022-12-24T18:03:33.795Z,7.57
2022-12-24T18:08:36.597Z,8.33
2022-12-24T18:13:39.472Z,7.73
2022-12-24T18:18:41.314Z,8.50
2022-12-24T18:23:45.246Z,8.20
2022-12-24T18:28:47.453Z,8.40
2022-12-24T18:33:50.928Z,7.73
2022-12-24T18:38:52.849Z,7.93
2022-12-24T18:43:55.974Z,7.53
2022-12-24T18:48:59.605Z,6.83
2022-12-24T18:54:03.030Z,7.57
2022-12-24T18:59:04.910Z,6.67
2022-12-24T19:04:06.966Z,6.33
2022-12-24T19:09:09.490Z,7.70
2022-12-24T19:14:13.072Z,6.90
2022-12-24T19:19:14.924Z,7.57
2022-12-24T19:24:16.859Z,7.40
2022-12-24T19:29:19.558Z,6.50
2022-12-24T19:34:21.322Z,6.53
2022-12-24T19:39:28.205Z,5.93
2022-12-24T19:44:33.466Z,6.37
2022-12-24T19:49:35.366Z,6.40
2022-12-24T19:54:37.300Z,6.73
2022-12-24T19:59:39.205Z,6.20
2022-12-24T20:04:41.010Z,6.87
2022-12-24T20:09:42.776Z,5.67
2022-12-24T20:14:44.607Z,6.03
2022-12-24T20:19:46.382Z,6.07
2022-12-24T20:24:48.316Z,6.87
2022-12-24T20:29:50.247Z,6.17
2022-12-24T20:34:52.163Z,5.80
2022-12-24T20:39:55.315Z,7.07
2022-12-24T20:44:57.608Z,5.87
2022-12-24T20:49:59.705Z,6.57
2022-12-24T20:55:01.763Z,7.20
2022-12-24T21:00:04.550Z,5.90
2022-12-24T21:05:08.099Z,5.93
2022-12-24T21:10:12.375Z,5.77
2022-12-24T21:15:19.163Z,5.77
2022-12-24T21:20:24.218Z,6.23
2022-12-24T21:25:26.439Z,6.23
2022-12-24T21:30:28.623Z,5.87
2022-12-24T21:35:30.679Z,6.83
2022-12-24T21:40:32.457Z,6.20
2022-12-24T21:45:34.408Z,6.27
2022-12-24T21:50:54.529Z,6.10
2022-12-24T21:55:56.453Z,5.73
2022-12-24T22:01:05.396Z,6.17
2022-12-24T22:06:08.111Z,6.37
2022-12-24T22:11:32.628Z,6.77
2022-12-24T22:16:34.475Z,6.23
2022-12-24T22:21:36.633Z,5.83
2022-12-24T22:26:38.581Z,5.87
2022-12-24T22:31:40.665Z,6.43
2022-12-24T22:36:42.742Z,5.13
2022-12-24T22:41:44.508Z,5.07
2022-12-24T22:46:46.531Z,6.27
2022-12-24T22:51:48.671Z,6.20
2022-12-24T22:56:50.613Z,5.43
2022-12-24T23:01:53.699Z,5.87
2022-12-24T23:06:55.623Z,5.40
2022-12-24T23:11:57.420Z,6.10
2022-12-24T23:16:59.432Z,6.60
2022-12-24T23:22:02.706Z,6.77
2022-12-24T23:27:04.604Z,5.23
2022-12-24T23:32:06.434Z,6.00
2022-12-24T23:37:08.392Z,5.60
2022-12-24T23:42:10.399Z,4.90
2022-12-24T23:47:12.229Z,5.07
2022-12-24T23:52:14.062Z,4.70
2022-12-24T23:57:15.814Z,4.00
